createdAt,value
2022-09-15T00:00:09.021Z,2.80
2022-09-15T00:02:35.770Z,2.67
2022-09-15T00:05:02.490Z,3.03
2022-09-15T00:07:29.247Z,2.55
2022-09-15T00:09:55.849Z,2.60
2022-09-15T00:12:22.529Z,2.72
2022-09-15T00:14:49.115Z,2.67
2022-09-15T00:17:15.728Z,2.70
2022-09-15T00:19:42.336Z,2.90
2022-09-15T00:22:08.929Z,2.47
2022-09-15T00:24:36.082Z,2.72
2022-09-15T00:27:03.232Z,3.00
2022-09-15T00:29:30.274Z,2.70
2022-09-15T00:31:56.916Z,2.65
2022-09-15T00:34:23.531Z,2.67
2022-09-15T00:36:50.144Z,2.85
2022-09-15T00:39:16.966Z,2.85
2022-09-15T00:41:43.652Z,2.58
2022-09-15T00:44:16.084Z,2.60
2022-09-15T00:46:58.680Z,2.70
2022-09-15T00:49:37.877Z,2.50
2022-09-15T00:52:08.777Z,2.30
2022-09-15T00:54:53.965Z,2.70
2022-09-15T00:57:44.832Z,2.60
2022-09-15T01:00:14.668Z,2.58
2022-09-15T01:02:43.664Z,3.05
2022-09-15T01:05:14.268Z,2.60
2022-09-15T01:07:52.876Z,3.00
2022-09-15T01:10:25.965Z,2.70
2022-09-15T01:12:57.076Z,2.80
2022-09-15T01:15:38.153Z,2.60
2022-09-15T01:18:05.134Z,2.67
2022-09-15T01:20:47.604Z,2.95
2022-09-15T01:23:35.903Z,2.85
2022-09-15T01:26:28.999Z,2.70
2022-09-15T01:29:17.468Z,2.40
2022-09-15T01:32:10.151Z,2.88
2022-09-15T01:34:44.151Z,2.40
2022-09-15T01:37:20.399Z,2.70
2022-09-15T01:39:51.404Z,2.58
2022-09-15T01:42:19.592Z,2.42
2022-09-15T01:44:57.830Z,2.88
2022-09-15T01:47:25.942Z,2.70
2022-09-15T01:49:58.850Z,2.83
2022-09-15T01:52:26.038Z,2.60
2022-09-15T01:54:57.380Z,2.72
2022-09-15T01:57:24.580Z,2.60
2022-09-15T01:59:54.359Z,2.42
2022-09-15T02:02:50.203Z,2.38
2022-09-15T02:05:32.509Z,2.40
2022-09-15T02:08:09.287Z,2.70
2022-09-15T02:11:19.369Z,2.50
2022-09-15T02:13:48.802Z,2.20
2022-09-15T02:16:24.774Z,2.50
2022-09-15T02:19:00.345Z,2.42
2022-09-15T02:21:52.729Z,2.40
2022-09-15T02:24:26.432Z,2.47
2022-09-15T02:26:55.158Z,2.50
2022-09-15T02:29:25.791Z,2.50
2022-09-15T02:31:56.168Z,2.22
2022-09-15T02:34:27.573Z,2.30
2022-09-15T02:36:55.165Z,2.35
2022-09-15T02:39:26.236Z,2.10
2022-09-15T02:41:52.898Z,2.67
2022-09-15T02:44:19.681Z,2.45
2022-09-15T02:46:46.364Z,2.50
2022-09-15T02:49:13.196Z,2.50
2022-09-15T02:51:39.857Z,2.60
2022-09-15T02:54:06.728Z,2.50
2022-09-15T02:56:33.317Z,2.30
2022-09-15T02:59:00.008Z,2.80
2022-09-15T03:01:32.257Z,2.50
2022-09-15T03:03:59.148Z,2.65
2022-09-15T03:06:27.953Z,2.47
2022-09-15T03:08:58.857Z,2.60
2022-09-15T03:11:27.692Z,2.20
2022-09-15T03:13:56.573Z,2.40
2022-09-15T03:16:23.672Z,2.70
2022-09-15T03:18:50.784Z,2.83
2022-09-15T03:21:18.581Z,2.30
2022-09-15T03:23:45.484Z,2.55
2022-09-15T03:26:12.685Z,2.72
2022-09-15T03:28:39.779Z,2.92
2022-09-15T03:31:08.131Z,2.53
2022-09-15T03:33:35.033Z,3.00
2022-09-15T03:36:02.981Z,2.55
2022-09-15T03:38:29.880Z,2.70
2022-09-15T03:41:01.602Z,2.90
2022-09-15T03:43:29.782Z,2.53
2022-09-15T03:45:56.846Z,2.70
2022-09-15T03:48:24.272Z,2.88
2022-09-15T03:50:51.570Z,2.92
2022-09-15T03:53:19.148Z,2.67
2022-09-15T03:55:47.752Z,2.90
2022-09-15T03:58:15.241Z,2.70
2022-09-15T04:00:42.223Z,2.88
2022-09-15T04:03:09.048Z,2.70
2022-09-15T04:05:36.281Z,2.72
2022-09-15T04:08:03.531Z,2.80
2022-09-15T04:10:30.405Z,2.88
2022-09-15T04:12:57.512Z,2.90
2022-09-15T04:15:24.174Z,3.10
2022-09-15T04:17:50.820Z,2.95
2022-09-15T04:20:17.783Z,3.08
2022-09-15T04:22:45.234Z,2.70
2022-09-15T04:25:12.151Z,2.60
2022-09-15T04:27:38.987Z,2.78
2022-09-15T04:30:07.619Z,2.78
2022-09-15T04:32:35.751Z,2.63
2022-09-15T04:35:03.087Z,2.63
2022-09-15T04:37:30.136Z,2.75
2022-09-15T04:39:56.959Z,2.70
2022-09-15T04:42:24.041Z,2.90
2022-09-15T04:44:51.049Z,2.70
2022-09-15T04:47:18.051Z,2.70
2022-09-15T04:49:44.685Z,2.78
2022-09-15T04:52:11.700Z,2.90
2022-09-15T04:54:38.289Z,2.92
2022-09-15T04:57:05.026Z,2.75
2022-09-15T04:59:31.629Z,2.70
2022-09-15T05:01:58.366Z,2.80
2022-09-15T05:04:25.052Z,2.50
2022-09-15T05:06:51.724Z,2.90
2022-09-15T05:09:18.337Z,2.55
2022-09-15T05:11:44.944Z,2.70
2022-09-15T05:14:11.716Z,2.70
2022-09-15T05:16:40.114Z,2.90
2022-09-15T05:19:06.896Z,2.60
2022-09-15T05:21:33.940Z,2.47
2022-09-15T05:24:00.667Z,2.75
2022-09-15T05:26:28.887Z,2.72
2022-09-15T05:28:57.107Z,3.10
2022-09-15T05:31:30.889Z,3.08
2022-09-15T05:34:03.864Z,3.05
2022-09-15T05:36:31.108Z,3.42
2022-09-15T05:38:58.482Z,3.20
2022-09-15T05:41:26.979Z,3.13
2022-09-15T05:43:55.306Z,2.83
2022-09-15T05:46:22.568Z,3.38
2022-09-15T05:48:49.265Z,2.92
2022-09-15T05:51:15.906Z,3.30
2022-09-15T05:53:42.617Z,2.90
2022-09-15T05:56:14.208Z,3.00
2022-09-15T05:58:42.965Z,3.45
2022-09-15T06:01:14.789Z,3.27
2022-09-15T06:03:41.467Z,3.10
2022-09-15T06:06:08.213Z,3.65
2022-09-15T06:08:43.921Z,2.97
2022-09-15T06:11:19.862Z,3.17
2022-09-15T06:13:47.751Z,2.67
2022-09-15T06:16:35.086Z,2.65
2022-09-15T06:19:02.223Z,2.97
2022-09-15T06:21:30.322Z,2.95
2022-09-15T06:23:59.155Z,2.80
2022-09-15T06:26:27.293Z,2.72
2022-09-15T06:28:57.179Z,2.60
2022-09-15T06:31:25.428Z,2.78
2022-09-15T06:33:54.296Z,2.50
2022-09-15T06:36:23.120Z,3.10
2022-09-15T06:38:50.043Z,3.00
2022-09-15T06:41:16.903Z,2.85
2022-09-15T06:43:44.496Z,3.03
2022-09-15T06:46:14.323Z,3.15
2022-09-15T06:48:44.230Z,2.92
2022-09-15T06:51:14.098Z,2.78
2022-09-15T06:53:41.119Z,3.45
2022-09-15T06:56:13.766Z,2.75
2022-09-15T06:58:42.083Z,3.08
2022-09-15T07:01:13.849Z,2.72
2022-09-15T07:03:43.360Z,2.90
2022-09-15T07:08:39.815Z,2.67
2022-09-15T07:11:07.579Z,3.10
2022-09-15T07:13:34.276Z,3.10
2022-09-15T07:16:04.074Z,3.28
2022-09-15T07:18:31.423Z,3.80
2022-09-15T07:21:00.375Z,3.80
2022-09-15T07:23:27.229Z,3.45
2022-09-15T07:26:05.804Z,3.45
2022-09-15T07:28:33.021Z,3.13
2022-09-15T07:30:59.772Z,3.30
2022-09-15T07:33:26.446Z,3.38
2022-09-15T07:35:53.045Z,2.90
2022-09-15T07:38:19.776Z,3.38
2022-09-15T07:40:48.686Z,3.22
2022-09-15T07:43:16.240Z,3.70
2022-09-15T07:45:42.864Z,4.05
2022-09-15T07:48:09.496Z,3.13
2022-09-15T07:50:36.136Z,3.00
2022-09-15T07:53:02.864Z,4.07
2022-09-15T07:55:30.456Z,3.30
2022-09-15T07:57:58.705Z,3.13
2022-09-15T08:00:25.769Z,2.92
2022-09-15T08:02:52.624Z,3.00
2022-09-15T08:05:19.479Z,3.40
2022-09-15T08:07:46.317Z,2.60
2022-09-15T08:10:13.004Z,3.10
2022-09-15T08:12:40.813Z,2.88
2022-09-15T08:15:07.872Z,3.17
2022-09-15T08:17:35.052Z,3.10
2022-09-15T08:20:02.255Z,3.17
2022-09-15T08:22:29.059Z,2.92
2022-09-15T08:24:55.816Z,3.45
2022-09-15T08:27:22.878Z,2.78
2022-09-15T08:29:49.649Z,2.50
2022-09-15T08:32:16.244Z,2.35
2022-09-15T08:34:42.848Z,2.25
2022-09-15T08:37:09.447Z,2.70
2022-09-15T08:39:36.308Z,2.47
2022-09-15T08:42:04.025Z,1.90
2022-09-15T08:44:37.691Z,2.20
2022-09-15T08:47:33.684Z,2.05
2022-09-15T08:50:08.273Z,1.92
2022-09-15T08:52:59.469Z,2.30
2022-09-15T08:55:46.895Z,2.13
2022-09-15T08:58:17.376Z,2.17
2022-09-15T09:00:46.839Z,2.38
2022-09-15T09:03:16.042Z,2.20
2022-09-15T09:05:45.783Z,2.70
2022-09-15T09:08:31.737Z,2.30
2022-09-15T09:11:33.077Z,1.88
2022-09-15T09:14:08.467Z,2.65
2022-09-15T09:16:56.397Z,2.20
2022-09-15T09:19:40.490Z,2.13
2022-09-15T09:22:12.667Z,2.50
2022-09-15T09:24:48.075Z,2.00
2022-09-15T09:27:20.727Z,2.05
2022-09-15T09:30:01.395Z,2.50
2022-09-15T09:32:39.239Z,2.53
2022-09-15T09:35:14.895Z,2.70
2022-09-15T09:37:41.566Z,2.10
2022-09-15T09:40:13.938Z,1.90
2022-09-15T09:42:41.109Z,2.60
2022-09-15T09:45:13.508Z,2.33
2022-09-15T09:47:42.018Z,2.35
2022-09-15T09:50:33.498Z,2.20
2022-09-15T09:53:00.625Z,2.25
2022-09-15T09:55:28.187Z,2.30
2022-09-15T09:58:12.636Z,2.17
2022-09-15T10:00:41.232Z,2.40
2022-09-15T10:03:19.722Z,2.40
2022-09-15T10:06:07.611Z,3.40
2022-09-15T10:08:36.472Z,2.47
2022-09-15T10:11:06.728Z,2.22
2022-09-15T10:13:50.436Z,2.30
2022-09-15T10:16:19.483Z,2.20
2022-09-15T10:18:53.998Z,2.30
2022-09-15T10:21:24.651Z,2.42
2022-09-15T10:23:51.355Z,2.30
2022-09-15T10:26:17.972Z,2.42
2022-09-15T10:28:45.285Z,2.42
2022-09-15T10:31:24.386Z,2.33
2022-09-15T10:33:51.007Z,2.65
2022-09-15T10:36:28.310Z,2.70
2022-09-15T10:39:22.116Z,3.00
2022-09-15T10:42:16.905Z,2.70
2022-09-15T10:44:49.340Z,2.70
2022-09-15T10:47:33.725Z,2.70
2022-09-15T10:50:09.041Z,2.70
2022-09-15T10:53:13.397Z,2.60
2022-09-15T10:55:53.386Z,2.95
2022-09-15T10:59:01.123Z,2.80
2022-09-15T11:01:30.685Z,2.70
2022-09-15T11:04:18.200Z,2.80
2022-09-15T11:07:11.069Z,2.95
2022-09-15T11:10:00.812Z,2.97
2022-09-15T11:12:51.797Z,2.70
2022-09-15T11:15:26.289Z,2.78
2022-09-15T11:18:08.047Z,2.60
2022-09-15T11:21:02.420Z,2.80
2022-09-15T11:23:33.857Z,2.88
2022-09-15T11:26:06.950Z,2.92
2022-09-15T11:28:36.753Z,2.90
2022-09-15T11:31:40.259Z,2.90
2022-09-15T11:34:57.056Z,2.80
2022-09-15T11:37:29.805Z,3.33
2022-09-15T11:40:07.965Z,2.88
2022-09-15T11:42:52.037Z,2.83
2022-09-15T11:45:25.729Z,2.90
2022-09-15T11:48:13.067Z,3.13
2022-09-15T11:50:43.920Z,3.22
2022-09-15T11:53:25.984Z,3.00
2022-09-15T11:56:00.666Z,3.38
2022-09-15T11:58:48.900Z,2.70
2022-09-15T12:01:25.052Z,2.70
2022-09-15T12:03:56.185Z,2.53
2022-09-15T12:06:45.890Z,2.38
2022-09-15T12:09:17.769Z,2.65
2022-09-15T12:11:47.836Z,3.00
2022-09-15T12:14:27.417Z,2.28
2022-09-15T12:16:54.960Z,2.65
2022-09-15T12:19:21.939Z,2.40
2022-09-15T12:21:57.771Z,2.80
2022-09-15T12:24:38.883Z,2.75
2022-09-15T12:27:05.757Z,2.50
2022-09-15T12:29:42.115Z,2.60
2022-09-15T12:32:18.666Z,2.60
2022-09-15T12:35:20.205Z,2.20
2022-09-15T12:37:55.827Z,2.58
2022-09-15T12:40:38.902Z,2.63
2022-09-15T12:43:11.701Z,2.40
2022-09-15T12:45:39.969Z,2.60
2022-09-15T12:48:20.463Z,2.40
2022-09-15T12:50:59.728Z,2.67
2022-09-15T12:56:03.644Z,2.70
2022-09-15T12:58:40.788Z,2.88
2022-09-15T13:01:19.797Z,2.80
2022-09-15T13:03:46.617Z,2.90
2022-09-15T13:06:19.478Z,2.80
2022-09-15T13:08:47.077Z,2.50
2022-09-15T13:11:29.780Z,2.83
2022-09-15T13:14:08.385Z,2.97
2022-09-15T13:16:43.950Z,2.85
2022-09-15T13:19:32.759Z,3.10
2022-09-15T13:22:12.388Z,2.42
2022-09-15T13:24:57.797Z,2.60
2022-09-15T13:27:42.327Z,3.15
2022-09-15T13:30:24.443Z,2.95
2022-09-15T13:35:01.111Z,2.60
2022-09-15T13:39:40.624Z,2.65
2022-09-15T13:42:24.633Z,2.95
2022-09-15T13:45:23.569Z,3.20
2022-09-15T13:47:58.236Z,2.88
2022-09-15T13:50:26.269Z,3.13
2022-09-15T13:53:25.590Z,2.50
2022-09-15T13:55:55.568Z,2.70
2022-09-15T14:01:13.203Z,3.67
2022-09-15T14:03:52.303Z,3.28
2022-09-15T14:06:54.981Z,3.58
2022-09-15T14:09:28.093Z,3.53
2022-09-15T14:11:59.407Z,3.08
2022-09-15T14:14:45.161Z,3.05
2022-09-15T14:17:28.726Z,3.13
2022-09-15T14:19:58.666Z,2.92
2022-09-15T14:22:33.863Z,3.33
2022-09-15T14:25:07.860Z,2.95
2022-09-15T14:27:36.561Z,3.45
2022-09-15T14:30:07.426Z,2.70
2022-09-15T14:32:39.448Z,2.72
2022-09-15T14:35:09.210Z,3.10
2022-09-15T14:37:35.908Z,2.88
2022-09-15T14:40:19.417Z,3.38
2022-09-15T14:42:46.109Z,3.17
2022-09-15T14:48:15.660Z,3.47
2022-09-15T14:50:44.825Z,3.10
2022-09-15T14:53:16.348Z,3.28
2022-09-15T14:56:07.726Z,3.20
2022-09-15T14:58:44.762Z,2.92
2022-09-15T15:01:25.956Z,3.17
2022-09-15T15:04:09.888Z,2.88
2022-09-15T15:07:01.828Z,2.88
2022-09-15T15:09:35.607Z,3.35
2022-09-15T15:12:07.378Z,3.33
2022-09-15T15:14:35.795Z,3.10
2022-09-15T15:17:08.248Z,3.08
2022-09-15T15:19:41.470Z,2.75
2022-09-15T15:22:15.408Z,3.20
2022-09-15T15:24:45.062Z,3.05
2022-09-15T15:27:33.350Z,3.00
2022-09-15T15:30:26.792Z,3.70
2022-09-15T15:32:54.201Z,3.28
2022-09-15T15:35:21.280Z,3.63
2022-09-15T15:37:49.699Z,3.45
2022-09-15T15:40:23.218Z,3.38
2022-09-15T15:43:23.834Z,4.00
2022-09-15T15:45:58.252Z,4.15
2022-09-15T15:48:26.585Z,3.95
2022-09-15T15:50:53.568Z,4.30
2022-09-15T15:53:20.827Z,3.50
2022-09-15T15:55:47.625Z,4.05
2022-09-15T15:58:15.224Z,4.22
2022-09-15T16:00:45.277Z,4.50
2022-09-15T16:03:13.577Z,4.32
2022-09-15T16:05:43.907Z,4.43
2022-09-15T16:08:19.772Z,4.00
2022-09-15T16:10:49.432Z,3.15
2022-09-15T16:13:18.202Z,3.47
2022-09-15T16:15:45.753Z,3.80
2022-09-15T16:18:13.129Z,4.10
2022-09-15T16:20:40.432Z,3.33
2022-09-15T16:23:07.210Z,3.72
2022-09-15T16:25:51.229Z,3.92
2022-09-15T16:28:18.223Z,4.03
2022-09-15T16:30:44.889Z,3.58
2022-09-15T16:33:16.950Z,3.90
2022-09-15T16:35:51.257Z,3.65
2022-09-15T16:38:20.454Z,3.20
2022-09-15T16:40:48.265Z,3.78
2022-09-15T16:43:20.893Z,3.20
2022-09-15T16:45:48.055Z,3.80
2022-09-15T16:48:15.374Z,3.53
2022-09-15T16:50:50.518Z,3.15
2022-09-15T16:53:30.942Z,3.70
2022-09-15T16:55:58.688Z,2.95
2022-09-15T16:58:25.316Z,3.10
2022-09-15T17:00:52.906Z,3.28
2022-09-15T17:03:22.902Z,3.10
2022-09-15T17:05:52.200Z,2.80
2022-09-15T17:08:33.021Z,3.00
2022-09-15T17:11:02.131Z,3.17
2022-09-15T17:13:31.647Z,3.15
2022-09-15T17:15:59.709Z,3.30
2022-09-15T17:18:27.451Z,2.75
2022-09-15T17:20:54.256Z,2.97
2022-09-15T17:23:31.122Z,3.10
2022-09-15T17:26:00.072Z,2.53
2022-09-15T17:28:32.609Z,2.75
2022-09-15T17:31:01.979Z,3.13
2022-09-15T17:33:31.078Z,2.40
2022-09-15T17:35:58.385Z,3.28
2022-09-15T17:38:25.621Z,2.35
2022-09-15T17:40:55.220Z,2.50
2022-09-15T17:45:50.837Z,2.10
2022-09-15T17:48:17.812Z,2.85
2022-09-15T17:50:45.408Z,2.60
2022-09-15T17:53:14.814Z,3.03
2022-09-15T17:55:41.768Z,2.33
2022-09-15T17:58:09.280Z,2.40
2022-09-15T18:00:37.792Z,2.40
2022-09-15T18:03:35.633Z,2.25
2022-09-15T18:06:07.817Z,2.10
2022-09-15T18:08:36.123Z,2.40
2022-09-15T18:11:04.124Z,2.15
2022-09-15T18:13:31.467Z,1.83
2022-09-15T18:16:03.326Z,2.08
2022-09-15T18:18:30.438Z,2.00
2022-09-15T18:20:58.503Z,2.05
2022-09-15T18:23:29.399Z,2.22
2022-09-15T18:25:56.694Z,2.28
2022-09-15T18:28:23.371Z,2.03
2022-09-15T18:30:50.614Z,1.88
2022-09-15T18:33:19.331Z,2.00
2022-09-15T18:35:46.958Z,1.80
2022-09-15T18:38:13.736Z,2.20
2022-09-15T18:40:49.140Z,2.20
2022-09-15T18:43:19.665Z,2.50
2022-09-15T18:45:46.440Z,1.88
2022-09-15T18:48:13.477Z,2.30
2022-09-15T18:50:41.474Z,2.35
2022-09-15T18:53:08.434Z,2.30
2022-09-15T18:55:35.455Z,2.17
2022-09-15T18:58:02.734Z,1.90
2022-09-15T19:00:30.032Z,2.40
2022-09-15T19:03:02.006Z,2.28
2022-09-15T19:05:30.545Z,2.40
2022-09-15T19:07:57.955Z,2.63
2022-09-15T19:10:26.748Z,2.30
2022-09-15T19:12:54.361Z,2.40
2022-09-15T19:15:25.016Z,2.40
2022-09-15T19:17:52.698Z,2.47
2022-09-15T19:20:19.632Z,2.58
2022-09-15T19:22:47.500Z,2.60
2022-09-15T19:25:14.763Z,1.98
2022-09-15T19:27:41.546Z,2.42
2022-09-15T19:30:10.195Z,2.75
2022-09-15T19:32:37.745Z,2.50
2022-09-15T19:35:04.870Z,2.42
2022-09-15T19:37:31.546Z,2.58
2022-09-15T19:39:58.327Z,2.53
2022-09-15T19:42:25.101Z,2.47
2022-09-15T19:44:51.825Z,2.53
2022-09-15T19:47:18.589Z,2.55
2022-09-15T19:49:45.255Z,2.33
2022-09-15T19:52:12.860Z,2.55
2022-09-15T19:54:39.557Z,2.30
2022-09-15T19:57:06.234Z,2.70
2022-09-15T19:59:32.869Z,2.28
2022-09-15T20:02:00.978Z,2.60
2022-09-15T20:04:28.816Z,2.67
2022-09-15T20:06:55.498Z,2.63
2022-09-15T20:09:22.635Z,2.58
2022-09-15T20:11:49.372Z,2.80
2022-09-15T20:14:16.397Z,2.50
2022-09-15T20:16:43.924Z,2.55
2022-09-15T20:19:10.939Z,2.55
2022-09-15T20:21:54.036Z,2.60
2022-09-15T20:24:22.064Z,2.83
2022-09-15T20:26:48.730Z,2.90
2022-09-15T20:29:15.534Z,2.58
2022-09-15T20:31:42.594Z,2.85
2022-09-15T20:34:10.236Z,3.30
2022-09-15T20:36:38.882Z,3.00
2022-09-15T20:39:09.487Z,2.83
2022-09-15T20:41:37.020Z,3.20
2022-09-15T20:44:05.267Z,3.00
2022-09-15T20:46:31.880Z,2.97
2022-09-15T20:48:58.499Z,3.00
2022-09-15T20:51:31.552Z,3.05
2022-09-15T20:53:59.807Z,3.53
2022-09-15T20:56:29.250Z,3.58
2022-09-15T20:59:00.773Z,4.25
2022-09-15T21:01:30.601Z,3.65
2022-09-15T21:03:57.330Z,3.50
2022-09-15T21:06:27.267Z,3.50
2022-09-15T21:08:55.608Z,3.80
2022-09-15T21:11:23.984Z,3.53
2022-09-15T21:13:50.797Z,4.05
2022-09-15T21:16:20.934Z,3.65
2022-09-15T21:18:48.518Z,4.03
2022-09-15T21:21:18.285Z,3.38
2022-09-15T21:26:14.659Z,3.55
2022-09-15T21:28:43.512Z,4.47
2022-09-15T21:31:13.437Z,3.93
2022-09-15T21:33:40.469Z,3.80
2022-09-15T21:36:09.959Z,3.58
2022-09-15T21:38:38.284Z,4.00
2022-09-15T21:41:06.449Z,3.80
2022-09-15T21:43:36.083Z,4.20
2022-09-15T21:46:04.944Z,3.97
2022-09-15T21:48:32.550Z,3.95
2022-09-15T21:51:00.015Z,3.58
2022-09-15T21:53:27.091Z,3.80
2022-09-15T21:55:54.828Z,4.00
2022-09-15T21:58:26.191Z,3.50
2022-09-15T22:00:53.441Z,3.47
2022-09-15T22:03:20.819Z,3.58
2022-09-15T22:05:48.215Z,3.55
2022-09-15T22:08:16.251Z,3.63
2022-09-15T22:11:00.714Z,3.72
2022-09-15T22:13:28.150Z,3.22
2022-09-15T22:16:07.779Z,3.85
2022-09-15T22:21:06.058Z,3.85
2022-09-15T22:23:32.678Z,3.78
2022-09-15T22:26:04.818Z,3.78
2022-09-15T22:28:32.103Z,3.38
2022-09-15T22:31:00.255Z,3.75
2022-09-15T22:33:27.403Z,4.18
2022-09-15T22:35:54.353Z,4.25
2022-09-15T22:38:21.207Z,3.92
2022-09-15T22:40:47.789Z,4.47
2022-09-15T22:43:14.367Z,4.10
2022-09-15T22:45:40.956Z,3.55
2022-09-15T22:48:07.572Z,3.40
2022-09-15T22:50:34.156Z,3.70
2022-09-15T22:53:00.786Z,4.20
2022-09-15T22:55:27.582Z,4.22
2022-09-15T22:57:54.152Z,4.75
2022-09-15T23:00:21.036Z,4.32
2022-09-15T23:02:48.167Z,4.80
2022-09-15T23:05:14.890Z,4.72
2022-09-15T23:07:42.247Z,4.32
2022-09-15T23:10:09.078Z,4.97
2022-09-15T23:12:35.606Z,4.75
2022-09-15T23:15:04.369Z,4.70
2022-09-15T23:17:31.645Z,3.88
2022-09-15T23:19:58.220Z,3.97
2022-09-15T23:22:24.762Z,3.80
2022-09-15T23:24:51.313Z,3.53
2022-09-15T23:27:18.206Z,3.80
2022-09-15T23:29:44.855Z,3.28
2022-09-15T23:32:11.405Z,3.30
2022-09-15T23:34:37.957Z,3.50
2022-09-15T23:37:04.555Z,3.80
2022-09-15T23:39:31.133Z,3.75
2022-09-15T23:41:57.774Z,3.30
2022-09-15T23:44:24.327Z,3.50
2022-09-15T23:46:50.899Z,3.30
2022-09-15T23:49:18.784Z,2.65
2022-09-15T23:51:45.525Z,3.30
2022-09-15T23:54:12.142Z,3.10
2022-09-15T23:56:38.700Z,3.20
2022-09-15T23:59:05.237Z,2.90
